createdAt,value
2018-12-08T00:02:08.797Z,4.10
2018-12-08T00:04:37.787Z,4.80
2018-12-08T00:07:08.535Z,4.90
2018-12-08T00:09:37.547Z,4.50
2018-12-08T00:12:06.683Z,5.53
2018-12-08T00:14:35.723Z,4.60
2018-12-08T00:17:04.956Z,3.73
2018-12-08T00:19:34.143Z,4.10
2018-12-08T00:22:03.308Z,4.63
2018-12-08T00:24:32.341Z,5.67
2018-12-08T00:27:01.394Z,5.83
2018-12-08T00:29:30.531Z,4.97
2018-12-08T00:31:59.556Z,4.27
2018-12-08T00:34:28.753Z,5.10
2018-12-08T00:36:57.776Z,5.50
2018-12-08T00:39:26.767Z,7.60
2018-12-08T00:41:55.900Z,5.53
2018-12-08T00:44:25.015Z,3.77
2018-12-08T00:46:54.228Z,5.17
2018-12-08T00:49:23.444Z,6.50
2018-12-08T00:51:52.566Z,7.90
2018-12-08T00:54:21.773Z,5.10
2018-12-08T00:56:50.862Z,6.30
2018-12-08T00:59:19.806Z,5.20
2018-12-08T01:01:48.834Z,6.37
2018-12-08T01:04:17.987Z,4.93
2018-12-08T01:06:54.845Z,4.70
2018-12-08T01:09:25.691Z,6.40
2018-12-08T01:12:02.520Z,6.30
2018-12-08T01:14:31.761Z,5.80
2018-12-08T01:17:01.031Z,3.03
2018-12-08T01:22:53.606Z,7.40
2018-12-08T01:25:23.072Z,5.37
2018-12-08T01:27:52.123Z,5.93
2018-12-08T01:30:21.183Z,4.50
2018-12-08T01:32:50.421Z,5.17
2018-12-08T01:35:58.581Z,6.03
2018-12-08T01:38:58.026Z,4.27
2018-12-08T01:41:36.085Z,6.90
2018-12-08T01:44:06.283Z,7.33
2018-12-08T01:46:35.470Z,6.10
2018-12-08T01:49:12.350Z,4.73
2018-12-08T01:51:45.372Z,7.50
2018-12-08T01:54:18.419Z,6.07
2018-12-08T01:56:51.876Z,5.60
2018-12-08T01:59:21.040Z,8.07
2018-12-08T02:02:00.464Z,4.17
2018-12-08T02:04:50.163Z,5.13
2018-12-08T02:07:19.375Z,5.27
2018-12-08T02:09:48.457Z,4.93
2018-12-08T02:12:17.480Z,4.73
2018-12-08T02:14:46.535Z,3.53
2018-12-08T02:17:23.251Z,4.93
2018-12-08T02:19:56.010Z,4.60
2018-12-08T02:22:42.073Z,2.93
2018-12-08T02:25:11.165Z,3.80
2018-12-08T02:27:40.219Z,4.50
2018-12-08T02:30:13.090Z,5.10
2018-12-08T02:32:42.064Z,3.47
2018-12-08T02:35:14.493Z,4.17
2018-12-08T02:37:51.383Z,3.33
2018-12-08T02:40:28.203Z,3.00
2018-12-08T02:42:57.271Z,4.80
2018-12-08T02:45:38.880Z,3.30
2018-12-08T02:48:41.530Z,3.80
2018-12-08T02:51:18.062Z,5.03
2018-12-08T02:53:54.558Z,3.60
2018-12-08T02:56:23.682Z,3.40
2018-12-08T02:58:52.891Z,3.27
2018-12-08T03:01:25.939Z,4.20
2018-12-08T03:03:58.857Z,3.90
2018-12-08T03:06:28.133Z,4.30
2018-12-08T03:09:00.298Z,3.03
2018-12-08T03:11:29.386Z,4.10
2018-12-08T03:14:05.911Z,3.80
2018-12-08T03:16:35.016Z,5.80
2018-12-08T03:19:04.074Z,2.97
2018-12-08T03:21:41.318Z,3.63
2018-12-08T03:24:18.025Z,4.90
2018-12-08T03:26:47.087Z,3.70
2018-12-08T03:29:16.172Z,3.73
2018-12-08T03:31:45.408Z,3.20
2018-12-08T03:34:14.723Z,4.40
2018-12-08T03:36:43.884Z,3.93
2018-12-08T03:39:49.844Z,4.37
2018-12-08T03:48:08.558Z,3.67
2018-12-08T03:50:37.805Z,3.43
2018-12-08T03:53:06.900Z,3.03
2018-12-08T03:55:51.172Z,4.20
2018-12-08T03:58:20.244Z,3.13
2018-12-08T04:00:49.748Z,4.13
2018-12-08T04:03:19.714Z,4.37
2018-12-08T04:05:48.918Z,4.00
2018-12-08T04:08:18.145Z,4.10
2018-12-08T04:10:47.218Z,4.60
2018-12-08T04:13:16.443Z,5.10
2018-12-08T04:15:45.659Z,4.10
2018-12-08T04:18:18.158Z,2.93
2018-12-08T04:20:47.527Z,3.87
2018-12-08T04:23:16.621Z,4.47
2018-12-08T04:25:49.097Z,5.73
2018-12-08T04:28:18.316Z,4.53
2018-12-08T04:30:54.864Z,5.00
2018-12-08T04:33:44.812Z,4.20
2018-12-08T04:36:13.824Z,4.10
2018-12-08T04:38:46.633Z,5.23
2018-12-08T04:41:15.763Z,4.10
2018-12-08T04:43:44.814Z,3.90
2018-12-08T04:46:13.882Z,5.10
2018-12-08T04:48:42.938Z,4.13
2018-12-08T04:51:19.212Z,3.30
2018-12-08T04:53:48.367Z,4.20
2018-12-08T04:56:17.613Z,3.90
2018-12-08T04:58:46.882Z,4.00
2018-12-08T05:01:16.121Z,6.17
2018-12-08T05:03:45.233Z,2.57
2018-12-08T05:06:14.404Z,3.47
2018-12-08T05:08:43.546Z,4.93
2018-12-08T05:11:12.647Z,3.00
2018-12-08T05:13:41.765Z,4.50
2018-12-08T05:16:10.808Z,4.13
2018-12-08T05:18:39.933Z,6.00
2018-12-08T05:21:09.107Z,5.20
2018-12-08T05:23:38.210Z,4.70
2018-12-08T05:26:07.731Z,4.30
2018-12-08T05:28:37.012Z,5.77
2018-12-08T05:31:06.281Z,5.30
2018-12-08T05:33:35.281Z,3.30
2018-12-08T05:36:04.783Z,4.33
2018-12-08T05:38:33.986Z,5.10
2018-12-08T05:41:03.057Z,4.30
2018-12-08T05:43:32.136Z,4.23
2018-12-08T05:46:04.332Z,3.70
2018-12-08T05:48:33.627Z,3.60
2018-12-08T05:51:02.851Z,5.33
2018-12-08T05:53:31.897Z,4.10
2018-12-08T05:56:01.062Z,3.90
2018-12-08T05:58:37.591Z,3.87
2018-12-08T06:01:07.491Z,4.70
2018-12-08T06:03:37.458Z,3.67
2018-12-08T06:06:06.626Z,3.87
2018-12-08T06:08:35.602Z,4.77
2018-12-08T06:11:19.863Z,5.70
2018-12-08T06:13:49.330Z,5.07
2018-12-08T06:16:26.431Z,4.40
2018-12-08T06:19:12.432Z,4.03
2018-12-08T06:21:44.755Z,4.00
2018-12-08T06:24:37.398Z,3.50
2018-12-08T06:27:33.614Z,4.30
2018-12-08T06:30:02.736Z,4.63
2018-12-08T06:32:52.513Z,4.87
2018-12-08T06:35:51.147Z,5.53
2018-12-08T06:38:20.451Z,4.73
2018-12-08T06:40:49.633Z,4.00
2018-12-08T06:46:42.899Z,4.87
2018-12-08T06:49:12.090Z,5.50
2018-12-08T06:51:41.211Z,4.40
2018-12-08T06:54:11.391Z,6.63
2018-12-08T06:56:40.455Z,4.77
2018-12-08T06:59:09.589Z,5.00
2018-12-08T07:01:38.633Z,4.70
2018-12-08T07:04:07.891Z,5.47
2018-12-08T07:06:37.031Z,4.90
2018-12-08T07:09:07.986Z,4.83
2018-12-08T07:11:37.186Z,5.37
2018-12-08T07:14:06.428Z,5.50
2018-12-08T07:16:35.569Z,6.47
2018-12-08T07:19:04.854Z,6.40
2018-12-08T07:21:34.033Z,5.47
2018-12-08T07:24:03.216Z,5.30
2018-12-08T07:26:32.393Z,5.10
2018-12-08T07:29:01.613Z,5.10
2018-12-08T07:31:30.773Z,4.80
2018-12-08T07:34:00.123Z,5.77
2018-12-08T07:36:29.394Z,5.10
2018-12-08T07:38:58.562Z,3.90
2018-12-08T07:41:27.754Z,5.37
2018-12-08T07:43:57.059Z,4.53
2018-12-08T07:46:26.215Z,5.27
2018-12-08T07:48:55.412Z,4.17
2018-12-08T07:51:24.903Z,4.67
2018-12-08T07:53:54.151Z,5.37
2018-12-08T07:56:23.383Z,3.00
2018-12-08T07:58:52.528Z,3.47
2018-12-08T08:01:21.748Z,3.30
2018-12-08T08:03:50.999Z,3.90
2018-12-08T08:06:21.151Z,2.70
2018-12-08T08:08:50.363Z,4.20
2018-12-08T08:11:19.932Z,3.13
2018-12-08T08:13:49.181Z,5.10
2018-12-08T08:16:18.270Z,3.83
2018-12-08T08:18:47.563Z,3.00
2018-12-08T08:21:16.775Z,4.13
2018-12-08T08:23:45.997Z,3.30
2018-12-08T08:26:15.222Z,3.00
2018-12-08T08:28:44.322Z,3.67
2018-12-08T08:31:13.460Z,3.60
2018-12-08T08:33:42.672Z,4.47
2018-12-08T08:36:11.782Z,5.70
2018-12-08T08:38:41.023Z,4.13
2018-12-08T08:41:10.278Z,4.20
2018-12-08T08:43:39.417Z,3.97
2018-12-08T08:46:08.735Z,3.70
2018-12-08T08:48:37.831Z,4.97
2018-12-08T08:51:32.839Z,4.27
2018-12-08T08:54:02.126Z,3.93
2018-12-08T08:56:31.271Z,3.73
2018-12-08T08:59:00.370Z,4.83
2018-12-08T09:01:29.628Z,3.50
2018-12-08T09:03:58.897Z,5.60
2018-12-08T09:06:28.212Z,5.93
2018-12-08T09:08:57.374Z,4.17
2018-12-08T09:11:26.695Z,4.67
2018-12-08T09:13:55.990Z,3.43
2018-12-08T09:16:25.255Z,4.03
2018-12-08T09:18:54.517Z,4.93
2018-12-08T09:21:23.662Z,5.13
2018-12-08T09:23:52.999Z,4.70
2018-12-08T09:26:23.280Z,4.87
2018-12-08T09:28:52.578Z,5.03
2018-12-08T09:31:21.907Z,4.87
2018-12-08T09:33:52.934Z,5.37
2018-12-08T09:36:22.447Z,5.37
2018-12-08T09:38:52.090Z,4.60
2018-12-08T09:41:21.267Z,5.30
2018-12-08T09:43:50.535Z,6.67
2018-12-08T09:46:19.855Z,4.97
2018-12-08T09:48:49.007Z,5.37
2018-12-08T09:51:18.143Z,4.40
2018-12-08T09:53:50.203Z,4.97
2018-12-08T09:56:19.435Z,4.57
2018-12-08T09:58:48.503Z,3.30
2018-12-08T10:01:17.615Z,4.53
2018-12-08T10:03:46.798Z,4.13
2018-12-08T10:06:16.079Z,3.83
2018-12-08T10:08:45.215Z,4.83
2018-12-08T10:11:14.418Z,6.20
2018-12-08T10:13:43.642Z,4.97
2018-12-08T10:16:12.910Z,5.33
2018-12-08T10:18:42.169Z,6.67
2018-12-08T10:21:11.431Z,5.63
2018-12-08T10:23:40.749Z,5.60
2018-12-08T10:26:09.927Z,5.77
2018-12-08T10:28:39.151Z,7.17
2018-12-08T10:31:08.342Z,4.90
2018-12-08T10:33:37.698Z,6.90
2018-12-08T10:36:06.830Z,3.97
2018-12-08T10:38:36.086Z,6.73
2018-12-08T10:41:05.284Z,4.03
2018-12-08T10:43:34.438Z,5.93
2018-12-08T10:46:03.706Z,6.93
2018-12-08T10:48:32.963Z,6.37
2018-12-08T10:51:02.008Z,6.90
2018-12-08T10:53:31.198Z,5.67
2018-12-08T10:56:00.342Z,4.27
2018-12-08T10:58:29.427Z,6.00
2018-12-08T11:01:03.554Z,5.90
2018-12-08T11:03:52.763Z,5.53
2018-12-08T11:06:22.008Z,6.20
2018-12-08T11:08:51.215Z,4.30
2018-12-08T11:11:20.503Z,6.57
2018-12-08T11:13:49.713Z,4.60
2018-12-08T11:16:18.828Z,5.30
2018-12-08T11:18:48.242Z,4.63
2018-12-08T11:21:17.331Z,5.10
2018-12-08T11:23:46.535Z,6.60
2018-12-08T11:26:15.787Z,5.00
2018-12-08T11:28:45.003Z,4.63
2018-12-08T11:31:14.148Z,3.97
2018-12-08T11:33:43.447Z,2.90
2018-12-08T11:36:12.688Z,5.87
2018-12-08T11:38:41.803Z,6.17
2018-12-08T11:41:10.952Z,5.00
2018-12-08T11:43:40.283Z,4.93
2018-12-08T11:46:09.502Z,5.47
2018-12-08T11:48:38.722Z,4.93
2018-12-08T11:51:07.903Z,4.07
2018-12-08T11:53:37.073Z,11.20
2018-12-08T11:56:06.327Z,6.10
2018-12-08T11:58:39.718Z,3.40
2018-12-08T12:01:08.968Z,5.73
2018-12-08T12:03:38.193Z,4.30
2018-12-08T12:06:07.640Z,4.30
2018-12-08T12:08:36.851Z,4.63
2018-12-08T12:11:06.111Z,4.10
2018-12-08T12:13:35.328Z,3.33
2018-12-08T12:16:05.620Z,3.93
2018-12-08T12:18:51.907Z,3.10
2018-12-08T12:21:21.024Z,2.80
2018-12-08T12:24:23.927Z,4.37
2018-12-08T12:26:53.199Z,2.67
2018-12-08T12:29:22.489Z,4.57
2018-12-08T12:31:51.607Z,6.27
2018-12-08T12:34:20.941Z,3.60
2018-12-08T12:36:50.090Z,5.97
2018-12-08T12:39:19.344Z,3.97
2018-12-08T12:41:48.531Z,4.40
2018-12-08T12:44:17.816Z,4.30
2018-12-08T12:46:47.319Z,6.43
2018-12-08T12:49:16.668Z,5.77
2018-12-08T12:51:47.907Z,4.40
2018-12-08T12:54:17.360Z,5.13
2018-12-08T12:56:47.809Z,5.70
2018-12-08T12:59:24.388Z,4.27
2018-12-08T13:01:54.007Z,2.83
2018-12-08T13:04:23.315Z,3.53
2018-12-08T13:06:52.763Z,3.50
2018-12-08T13:09:21.903Z,2.73
2018-12-08T13:11:51.464Z,3.83
2018-12-08T13:14:21.458Z,3.93
2018-12-08T13:17:03.183Z,3.87
2018-12-08T13:19:35.855Z,4.00
2018-12-08T13:22:12.714Z,4.27
2018-12-08T13:24:49.150Z,4.30
2018-12-08T13:27:18.374Z,3.50
2018-12-08T13:29:47.667Z,4.87
2018-12-08T13:32:24.440Z,4.13
2018-12-08T13:35:02.088Z,3.40
2018-12-08T13:37:31.457Z,3.60
2018-12-08T13:40:00.723Z,3.90
2018-12-08T13:42:42.438Z,5.47
2018-12-08T13:45:17.723Z,4.53
2018-12-08T13:47:48.118Z,5.00
2018-12-08T13:50:17.339Z,4.53
2018-12-08T13:53:07.227Z,2.80
2018-12-08T13:55:43.920Z,5.03
2018-12-08T13:58:46.883Z,2.60
2018-12-08T14:01:23.414Z,3.10
2018-12-08T14:03:55.818Z,4.50
2018-12-08T14:06:32.879Z,3.30
2018-12-08T14:09:06.642Z,3.83
2018-12-08T14:11:37.891Z,3.53
2018-12-08T14:14:14.675Z,4.20
2018-12-08T14:16:47.616Z,4.43
2018-12-08T14:19:24.227Z,4.07
2018-12-08T14:21:53.544Z,4.73
2018-12-08T14:24:24.803Z,5.00
2018-12-08T14:27:27.778Z,3.57
2018-12-08T14:29:57.363Z,4.23
2018-12-08T14:32:34.530Z,4.60
2018-12-08T14:35:04.118Z,4.50
2018-12-08T14:37:36.931Z,4.50
2018-12-08T14:40:07.531Z,2.83
2018-12-08T14:42:37.171Z,5.57
2018-12-08T14:45:12.038Z,4.33
2018-12-08T14:47:43.619Z,4.47
2018-12-08T14:50:20.487Z,4.47
2018-12-08T14:53:38.875Z,2.80
2018-12-08T14:56:15.891Z,4.90
2018-12-08T14:58:45.496Z,4.90
2018-12-08T15:01:16.331Z,2.27
2018-12-08T15:03:45.855Z,3.93
2018-12-08T15:06:16.511Z,2.50
2018-12-08T15:08:46.098Z,4.20
2018-12-08T15:11:45.267Z,2.10
2018-12-08T15:14:18.914Z,3.73
2018-12-08T15:16:48.784Z,4.10
2018-12-08T15:19:18.472Z,4.07
2018-12-08T15:21:47.999Z,5.67
2018-12-08T15:26:03.690Z,4.00
2018-12-08T15:28:33.299Z,3.97
2018-12-08T15:31:03.655Z,4.20
2018-12-08T15:33:33.354Z,3.93
2018-12-08T15:36:02.979Z,3.53
2018-12-08T15:39:08.651Z,5.07
2018-12-08T15:41:51.622Z,3.53
2018-12-08T15:44:21.574Z,4.40
2018-12-08T15:46:51.303Z,4.10
2018-12-08T15:49:24.590Z,3.13
2018-12-08T15:51:58.271Z,3.27
2018-12-08T15:54:31.310Z,3.83
2018-12-08T15:57:01.002Z,3.90
2018-12-08T15:59:37.956Z,4.63
2018-12-08T16:02:13.490Z,4.10
2018-12-08T16:05:33.210Z,2.50
2018-12-08T16:08:05.780Z,2.70
2018-12-08T16:10:38.735Z,3.50
2018-12-08T16:13:11.799Z,3.43
2018-12-08T16:15:45.634Z,2.97
2018-12-08T16:18:22.358Z,4.07
2018-12-08T16:20:51.933Z,4.00
2018-12-08T16:23:29.041Z,4.70
2018-12-08T16:26:23.867Z,5.20
2018-12-08T16:28:56.590Z,3.27
2018-12-08T16:31:33.439Z,3.27
2018-12-08T16:34:10.339Z,3.47
2018-12-08T16:36:48.151Z,3.30
2018-12-08T16:39:25.079Z,4.53
2018-12-08T16:41:58.059Z,3.70
2018-12-08T16:44:30.971Z,3.10
2018-12-08T16:47:03.864Z,5.03
2018-12-08T16:49:37.967Z,4.50
2018-12-08T16:52:14.754Z,5.00
2018-12-08T16:54:45.781Z,4.53
2018-12-08T16:57:22.958Z,3.87
2018-12-08T17:00:00.582Z,4.40
2018-12-08T17:02:33.729Z,5.57
2018-12-08T17:05:04.743Z,4.60
2018-12-08T17:07:41.665Z,4.90
2018-12-08T17:10:14.349Z,4.07
2018-12-08T17:12:47.815Z,5.07
2018-12-08T17:15:20.604Z,3.07
2018-12-08T17:17:53.969Z,4.60
2018-12-08T17:20:27.587Z,4.27
2018-12-08T17:23:05.448Z,4.90
2018-12-08T17:25:42.729Z,4.97
2018-12-08T17:28:15.679Z,5.83
2018-12-08T17:30:48.719Z,5.70
2018-12-08T17:33:22.572Z,4.43
2018-12-08T17:35:59.543Z,3.93
2018-12-08T17:38:32.628Z,4.53
2018-12-08T17:41:05.743Z,5.30
2018-12-08T17:43:42.697Z,4.83
2018-12-08T17:46:19.742Z,5.20
2018-12-08T17:48:59.999Z,5.50
2018-12-08T17:51:33.463Z,5.63
2018-12-08T17:54:06.725Z,6.03
2018-12-08T17:56:39.549Z,3.93
2018-12-08T17:59:12.835Z,5.10
2018-12-08T18:01:49.891Z,5.70
2018-12-08T18:04:22.667Z,6.03
2018-12-08T18:06:54.839Z,5.63
2018-12-08T18:09:28.388Z,5.67
2018-12-08T18:12:05.427Z,7.53
2018-12-08T18:14:42.103Z,5.53
2018-12-08T18:17:19.247Z,5.70
2018-12-08T18:19:56.222Z,7.50
2018-12-08T18:22:29.940Z,5.37
2018-12-08T18:25:01.623Z,6.57
2018-12-08T18:27:34.963Z,5.80
2018-12-08T18:35:14.310Z,5.10
2018-12-08T18:37:51.082Z,5.13
2018-12-08T18:40:28.115Z,5.10
2018-12-08T18:43:04.956Z,7.30
2018-12-08T18:46:00.879Z,6.80
2018-12-08T18:48:32.616Z,8.10
2018-12-08T18:51:02.336Z,7.13
2018-12-08T18:53:32.055Z,6.73
2018-12-08T18:56:02.583Z,7.10
2018-12-08T18:58:32.322Z,7.77
2018-12-08T19:01:02.038Z,5.73
2018-12-08T19:03:31.669Z,7.10
2018-12-08T19:06:01.298Z,7.07
2018-12-08T19:08:30.907Z,8.07
2018-12-08T19:11:00.494Z,7.20
2018-12-08T19:13:30.190Z,7.87
2018-12-08T19:15:59.855Z,7.80
2018-12-08T19:18:29.554Z,7.87
2018-12-08T19:20:59.242Z,6.47
2018-12-08T19:23:28.888Z,8.73
2018-12-08T19:25:58.518Z,7.70
2018-12-08T19:28:28.033Z,6.30
2018-12-08T19:30:57.678Z,7.80
2018-12-08T19:33:27.216Z,7.37
2018-12-08T19:35:56.876Z,6.40
2018-12-08T19:38:30.203Z,6.93
2018-12-08T19:40:59.875Z,5.80
2018-12-08T19:43:29.431Z,5.43
2018-12-08T19:45:59.043Z,6.50
2018-12-08T19:48:32.834Z,6.47
2018-12-08T19:51:02.724Z,6.10
2018-12-08T19:53:32.550Z,7.10
2018-12-08T19:56:02.234Z,6.97
2018-12-08T19:58:31.895Z,6.30
2018-12-08T20:01:01.522Z,7.07
2018-12-08T20:03:31.042Z,6.40
2018-12-08T20:06:00.595Z,6.50
2018-12-08T20:08:30.159Z,6.27
2018-12-08T20:11:00.771Z,6.87
2018-12-08T20:13:30.360Z,6.73
2018-12-08T20:15:59.910Z,5.20
2018-12-08T20:18:29.470Z,6.80
2018-12-08T20:20:59.146Z,5.37
2018-12-08T20:23:28.788Z,7.50
2018-12-08T20:25:58.354Z,5.67
2018-12-08T20:28:27.839Z,5.60
2018-12-08T20:30:57.519Z,5.27
2018-12-08T20:33:27.195Z,4.40
2018-12-08T20:35:56.968Z,5.43
2018-12-08T20:38:26.583Z,5.10
2018-12-08T20:40:56.198Z,4.50
2018-12-08T20:43:25.784Z,4.40
2018-12-08T20:45:55.444Z,4.17
2018-12-08T20:48:25.175Z,2.93
2018-12-08T20:50:54.667Z,3.60
2018-12-08T20:53:24.389Z,3.20
2018-12-08T20:55:53.963Z,4.23
2018-12-08T20:58:23.573Z,3.80
2018-12-08T21:00:53.179Z,3.50
2018-12-08T21:03:22.751Z,3.10
2018-12-08T21:05:52.386Z,3.30
2018-12-08T21:08:23.002Z,3.00
2018-12-08T21:10:52.495Z,3.50
2018-12-08T21:13:22.144Z,2.17
2018-12-08T21:15:51.779Z,2.70
2018-12-08T21:18:21.443Z,2.73
2018-12-08T21:20:51.015Z,1.97
2018-12-08T21:23:57.611Z,2.00
2018-12-08T21:26:27.213Z,2.10
2018-12-08T21:28:56.947Z,2.00
2018-12-08T21:31:26.480Z,1.50
2018-12-08T21:33:56.062Z,2.00
2018-12-08T21:36:25.560Z,1.53
2018-12-08T21:38:55.497Z,2.10
2018-12-08T21:41:25.074Z,1.63
2018-12-08T21:43:54.634Z,1.30
2018-12-08T21:46:24.251Z,1.50
2018-12-08T21:48:53.748Z,1.70
2018-12-08T21:51:26.407Z,1.27
2018-12-08T21:54:03.175Z,1.17
2018-12-08T21:56:39.935Z,1.43
2018-12-08T21:59:09.387Z,1.53
2018-12-08T22:02:04.901Z,1.33
2018-12-08T22:04:51.384Z,1.57
2018-12-08T22:07:28.801Z,2.00
2018-12-08T22:10:10.614Z,1.50
2018-12-08T22:12:47.330Z,2.23
2018-12-08T22:15:19.227Z,2.20
2018-12-08T22:17:56.817Z,2.00
2018-12-08T22:20:26.198Z,1.77
2018-12-08T22:22:55.806Z,1.80
2018-12-08T22:25:32.401Z,2.33
2018-12-08T22:28:01.772Z,2.60
2018-12-08T22:30:30.999Z,3.47
2018-12-08T22:33:00.216Z,3.50
2018-12-08T22:35:29.524Z,3.50
2018-12-08T22:37:58.740Z,2.87
2018-12-08T22:40:27.983Z,3.97
2018-12-08T22:42:57.215Z,2.67
2018-12-08T22:45:26.540Z,2.77
2018-12-08T22:47:55.638Z,3.63
2018-12-08T22:50:25.275Z,3.17
2018-12-08T22:52:54.430Z,3.43
2018-12-08T22:55:23.715Z,5.17
2018-12-08T22:57:52.963Z,3.33
2018-12-08T23:00:35.564Z,3.30
2018-12-08T23:03:04.727Z,3.40
2018-12-08T23:05:34.039Z,2.70
2018-12-08T23:08:03.394Z,3.80
2018-12-08T23:10:32.642Z,3.57
2018-12-08T23:13:01.799Z,5.40
2018-12-08T23:15:31.067Z,3.80
2018-12-08T23:18:00.238Z,1.90
2018-12-08T23:20:29.397Z,2.80
2018-12-08T23:22:58.530Z,2.73
2018-12-08T23:25:27.763Z,1.80
2018-12-08T23:27:57.059Z,1.53
2018-12-08T23:30:26.235Z,1.60
2018-12-08T23:32:55.339Z,2.67
2018-12-08T23:35:24.535Z,1.90
2018-12-08T23:37:53.791Z,2.03
2018-12-08T23:40:23.184Z,2.20
2018-12-08T23:42:52.425Z,1.70
2018-12-08T23:45:22.039Z,2.57
2018-12-08T23:47:51.287Z,1.40
2018-12-08T23:50:20.553Z,2.80
2018-12-08T23:52:49.892Z,2.00
2018-12-08T23:55:19.119Z,3.30
2018-12-08T23:57:48.375Z,2.40
